createdAt,value
2022-12-23T00:02:24.133Z,99253.38
2022-12-23T00:07:46.264Z,99234.78
2022-12-23T00:13:28.438Z,99251.78
2022-12-23T00:18:50.913Z,99242.25
2022-12-23T00:24:13.483Z,99225.44
2022-12-23T00:29:35.375Z,99249.41
2022-12-23T00:34:57.886Z,99258.50
2022-12-23T00:40:38.705Z,99259.81
2022-12-23T00:46:01.222Z,99257.72
2022-12-23T00:51:23.374Z,99245.91
2022-12-23T00:56:46.163Z,99210.47
2022-12-23T01:02:28.720Z,99227.69
2022-12-23T01:07:51.176Z,99226.06
2022-12-23T01:13:13.120Z,99232.56
2022-12-23T01:18:35.939Z,99210.84
2022-12-23T01:23:58.537Z,99215.75
2022-12-23T01:29:20.902Z,99206.47
2022-12-23T01:35:05.137Z,99226.19
2022-12-23T01:40:27.329Z,99215.94
2022-12-23T01:45:50.140Z,99255.94
2022-12-23T01:51:24.764Z,99245.03
2022-12-23T01:56:47.125Z,99249.28
2022-12-23T02:02:28.376Z,99217.94
2022-12-23T02:08:11.150Z,99242.69
2022-12-23T02:14:28.382Z,99236.69
2022-12-23T02:20:00.988Z,99245.06
2022-12-23T02:25:32.247Z,99233.44
2022-12-23T02:31:10.132Z,99217.63
2022-12-23T02:36:46.955Z,99225.66
2022-12-23T02:42:16.870Z,99196.72
2022-12-23T02:47:49.587Z,99201.72
2022-12-23T02:53:28.052Z,99199.50
2022-12-23T02:59:02.455Z,99225.09
2022-12-23T03:04:25.552Z,99196.03
2022-12-23T03:10:06.551Z,99229.34
2022-12-23T03:15:58.487Z,99228.78
2022-12-23T03:21:36.464Z,99220.88
2022-12-23T03:27:16.982Z,99212.41
2022-12-23T03:33:03.740Z,99208.56
2022-12-23T03:38:26.990Z,99213.84
2022-12-23T03:43:55.824Z,99223.50
2022-12-23T03:49:28.443Z,99208.56
2022-12-23T03:55:00.220Z,99191.72
2022-12-23T04:00:21.815Z,99204.53
2022-12-23T04:05:50.745Z,99195.53
2022-12-23T04:11:13.373Z,99197.38
2022-12-23T04:16:35.886Z,99197.16
2022-12-23T04:21:58.437Z,99202.19
2022-12-23T04:27:20.811Z,99201.66
2022-12-23T04:32:43.374Z,99196.34
2022-12-23T04:38:05.732Z,99206.97
2022-12-23T04:43:27.913Z,99200.53
2022-12-23T04:48:50.254Z,99204.22
2022-12-23T04:54:12.297Z,99199.41
2022-12-23T04:59:35.074Z,99214.91
2022-12-23T05:04:57.112Z,99206.25
2022-12-23T05:10:19.244Z,99200.16
2022-12-23T05:15:43.668Z,99198.94
2022-12-23T05:21:06.135Z,99200.69
2022-12-23T05:26:28.258Z,99212.19
2022-12-23T05:31:50.769Z,99211.63
2022-12-23T05:37:12.997Z,99212.69
2022-12-23T05:42:35.444Z,99229.78
2022-12-23T05:47:58.150Z,99244.63
2022-12-23T05:53:22.885Z,99231.06
2022-12-23T05:58:44.874Z,99251.03
2022-12-23T06:04:07.215Z,99234.28
2022-12-23T06:09:29.693Z,99221.75
2022-12-23T06:14:53.227Z,99229.03
2022-12-23T06:20:20.461Z,99237.28
2022-12-23T06:25:43.110Z,99228.22
2022-12-23T06:31:05.529Z,99223.66
2022-12-23T06:36:27.828Z,99217.56
2022-12-23T06:41:50.074Z,99235.13
2022-12-23T06:47:12.273Z,99236.00
2022-12-23T06:52:34.120Z,99241.13
2022-12-23T06:57:56.012Z,99222.03
2022-12-23T07:03:18.137Z,99223.84
2022-12-23T07:08:40.147Z,99224.41
2022-12-23T07:14:02.043Z,99227.16
2022-12-23T07:19:24.678Z,99211.41
2022-12-23T07:24:46.566Z,99210.59
2022-12-23T07:30:09.400Z,99199.97
2022-12-23T07:35:31.953Z,99164.84
2022-12-23T07:40:54.040Z,99168.81
2022-12-23T07:46:16.181Z,99153.44
2022-12-23T07:51:38.526Z,99152.69
2022-12-23T07:57:00.782Z,99171.06
2022-12-23T08:02:25.842Z,99162.78
2022-12-23T08:07:50.556Z,99174.28
2022-12-23T08:13:12.699Z,99173.22
2022-12-23T08:18:37.688Z,99167.13
2022-12-23T08:24:00.551Z,99168.28
2022-12-23T08:29:22.698Z,99144.03
2022-12-23T08:34:53.609Z,99135.28
2022-12-23T08:40:16.931Z,99159.38
2022-12-23T08:45:39.742Z,99141.50
2022-12-23T08:51:13.549Z,99133.09
2022-12-23T08:56:39.882Z,99142.75
2022-12-23T09:02:02.560Z,99118.28
2022-12-23T09:07:24.543Z,99114.81
2022-12-23T09:12:46.905Z,99120.66
2022-12-23T09:18:11.756Z,99113.47
2022-12-23T09:23:34.946Z,99111.66
2022-12-23T09:28:58.422Z,99118.81
2022-12-23T09:34:20.960Z,99105.81
2022-12-23T09:39:43.343Z,99108.19
2022-12-23T09:45:17.687Z,99086.38
2022-12-23T09:50:41.923Z,99090.66
2022-12-23T09:56:16.449Z,99073.88
2022-12-23T10:02:13.132Z,99062.66
2022-12-23T10:07:49.361Z,99059.25
2022-12-23T10:13:28.421Z,99028.59
2022-12-23T10:19:02.591Z,99068.06
2022-12-23T10:24:29.083Z,99032.75
2022-12-23T10:29:52.021Z,99024.00
2022-12-23T10:35:50.209Z,99063.75
2022-12-23T10:41:33.933Z,99055.78
2022-12-23T10:47:29.936Z,99040.38
2022-12-23T11:40:39.054Z,99013.28
2022-12-23T11:46:30.019Z,99022.59
2022-12-23T11:52:11.414Z,99006.69
2022-12-23T11:57:41.462Z,99023.63
2022-12-23T12:03:08.872Z,98997.28
2022-12-23T12:08:41.893Z,99014.97
2022-12-23T12:14:51.282Z,99005.72
2022-12-23T12:26:40.235Z,98990.00
2022-12-23T12:32:15.023Z,98997.78
2022-12-23T12:37:40.609Z,98990.28
2022-12-23T12:43:13.094Z,98998.84
2022-12-23T12:48:45.842Z,98991.69
2022-12-23T12:54:44.891Z,98969.09
2022-12-23T13:00:15.157Z,98960.06
2022-12-23T13:05:59.016Z,98952.88
2022-12-23T13:11:45.809Z,98969.16
2022-12-23T13:17:24.353Z,98972.38
2022-12-23T13:22:49.881Z,98951.31
2022-12-23T13:28:53.001Z,98956.69
2022-12-23T13:34:55.352Z,98961.44
2022-12-23T13:40:44.040Z,98956.66
2022-12-23T13:46:12.708Z,98965.66
2022-12-23T13:52:19.623Z,98960.16
2022-12-23T13:58:22.577Z,98960.94
2022-12-23T14:03:45.437Z,98955.13
2022-12-23T14:09:07.433Z,98949.25
2022-12-23T14:14:30.035Z,98936.16
2022-12-23T14:20:05.521Z,98953.56
2022-12-23T14:25:36.112Z,98943.44
2022-12-23T14:30:59.335Z,98945.00
2022-12-23T14:36:26.644Z,98935.47
2022-12-23T14:41:53.811Z,98927.53
2022-12-23T14:47:40.549Z,98916.91
2022-12-23T14:53:21.930Z,98918.00
2022-12-23T14:58:46.984Z,98920.91
2022-12-23T15:04:14.954Z,98911.63
2022-12-23T15:09:40.898Z,98898.31
2022-12-23T15:15:16.914Z,98898.91
2022-12-23T15:20:38.999Z,98904.50
2022-12-23T15:26:02.037Z,98896.19
2022-12-23T15:31:36.466Z,98877.34
2022-12-23T15:37:00.009Z,98869.09
2022-12-23T15:42:35.980Z,98877.13
2022-12-23T15:47:58.366Z,98856.13
2022-12-23T15:53:21.488Z,98864.94
2022-12-23T15:58:43.787Z,98855.88
2022-12-23T16:04:07.478Z,98875.56
2022-12-23T16:09:36.297Z,98882.50
2022-12-23T16:15:03.431Z,98883.84
2022-12-23T16:20:27.407Z,98883.84
2022-12-23T16:25:52.181Z,98861.84
2022-12-23T16:31:18.712Z,98835.81
2022-12-23T16:36:52.753Z,98830.00
2022-12-23T16:42:49.114Z,98839.59
2022-12-23T16:48:31.898Z,98829.50
2022-12-23T16:53:57.525Z,98837.47
2022-12-23T16:59:20.528Z,98841.75
2022-12-23T17:04:42.479Z,98828.47
2022-12-23T17:10:04.951Z,98822.09
2022-12-23T17:15:27.195Z,98822.66
2022-12-23T17:20:50.156Z,98804.84
2022-12-23T17:26:12.234Z,98803.53
2022-12-23T17:31:38.336Z,98795.56
2022-12-23T17:37:05.058Z,98778.53
2022-12-23T17:42:36.203Z,98806.19
2022-12-23T17:47:58.613Z,98795.56
2022-12-23T17:53:20.835Z,98760.25
2022-12-23T17:58:45.143Z,98805.16
2022-12-23T18:04:11.150Z,98768.47
2022-12-23T18:09:33.553Z,98740.56
2022-12-23T18:14:56.944Z,98759.44
2022-12-23T18:20:22.299Z,98771.97
2022-12-23T18:25:44.821Z,98736.88
2022-12-23T18:31:07.157Z,98733.44
2022-12-23T18:36:34.275Z,98756.31
2022-12-23T18:41:56.350Z,98757.38
2022-12-23T18:47:18.602Z,98766.41
2022-12-23T18:52:40.583Z,98744.09
2022-12-23T18:58:02.973Z,98753.94
2022-12-23T19:03:28.427Z,98755.56
2022-12-23T19:08:50.581Z,98750.78
2022-12-23T19:14:13.028Z,98740.66
2022-12-23T19:19:35.316Z,98731.84
2022-12-23T19:25:05.955Z,98759.78
2022-12-23T19:30:29.189Z,98745.16
2022-12-23T19:35:51.523Z,98763.50
2022-12-23T19:41:13.804Z,98768.53
2022-12-23T19:46:36.853Z,98778.09
2022-12-23T19:51:59.323Z,98769.03
2022-12-23T19:57:21.703Z,98773.56
2022-12-23T20:02:43.937Z,98761.34
2022-12-23T20:08:06.505Z,98751.53
2022-12-23T20:13:28.595Z,98755.78
2022-12-23T20:18:50.956Z,98758.69
2022-12-23T20:24:14.883Z,98754.47
2022-12-23T20:29:36.864Z,98755.78
2022-12-23T20:34:58.937Z,98770.69
2022-12-23T20:40:20.722Z,98754.97
2022-12-23T20:45:44.248Z,98763.78
2022-12-23T20:51:12.456Z,98771.50
2022-12-23T20:56:34.369Z,98766.69
2022-12-23T21:02:02.180Z,98771.50
2022-12-23T21:07:26.785Z,98754.22
2022-12-23T21:12:48.966Z,98765.63
2022-12-23T21:18:10.952Z,98772.78
2022-12-23T21:23:36.769Z,98770.66
2022-12-23T21:29:01.039Z,98769.03
2022-12-23T21:34:23.551Z,98795.09
2022-12-23T21:39:45.256Z,98790.28
2022-12-23T21:45:07.717Z,98788.91
2022-12-23T21:50:30.281Z,98782.53
2022-12-23T21:55:52.033Z,98793.44
2022-12-23T22:01:20.349Z,98793.16
2022-12-23T22:06:44.776Z,98798.78
2022-12-23T22:12:07.175Z,98807.81
2022-12-23T22:17:28.896Z,98803.25
2022-12-23T22:22:51.151Z,98787.03
2022-12-23T22:28:13.241Z,98813.88
2022-12-23T22:33:35.733Z,98820.56
2022-12-23T22:38:59.913Z,98818.94
2022-12-23T22:44:22.247Z,98822.97
2022-12-23T22:49:46.222Z,98813.16
2022-12-23T22:55:08.537Z,98814.22
2022-12-23T23:00:30.672Z,98802.50
2022-12-23T23:06:03.421Z,98822.00
2022-12-23T23:11:27.221Z,98812.88
2022-12-23T23:16:49.454Z,98838.44
2022-12-23T23:22:11.198Z,98844.81
2022-12-23T23:27:33.118Z,98849.28
2022-12-23T23:32:55.431Z,98856.78
2022-12-23T23:38:17.484Z,98864.47
2022-12-23T23:43:39.362Z,98858.38
2022-12-23T23:49:01.537Z,98870.34
2022-12-23T23:54:23.400Z,98862.34
2022-12-23T23:59:45.161Z,98868.47
